createdAt,value
2023-05-21T00:00:16.540Z,11.60
2023-05-21T00:02:46.025Z,11.50
2023-05-21T00:05:18.424Z,13.10
2023-05-21T00:07:48.254Z,12.70
2023-05-21T00:10:17.750Z,12.90
2023-05-21T00:15:18.635Z,13.50
2023-05-21T00:17:47.269Z,13.70
2023-05-21T00:20:18.717Z,11.60
2023-05-21T00:25:19.000Z,13.90
2023-05-21T00:27:49.337Z,13.60
2023-05-21T00:30:19.012Z,13.70
2023-05-21T00:35:18.185Z,11.90
2023-05-21T00:37:47.715Z,12.40
2023-05-21T00:40:16.879Z,11.90
2023-05-21T00:42:49.129Z,13.50
2023-05-21T00:45:18.768Z,12.60
2023-05-21T00:47:49.761Z,11.50
2023-05-21T00:52:49.632Z,13.20
2023-05-21T00:55:17.919Z,12.60
2023-05-21T00:57:47.963Z,11.20
2023-05-21T01:00:19.050Z,12.20
2023-05-21T01:02:49.961Z,11.40
2023-05-21T01:05:22.277Z,11.50
2023-05-21T01:07:53.779Z,11.80
2023-05-21T01:10:24.016Z,12.30
2023-05-21T01:12:54.886Z,11.30
2023-05-21T01:15:27.426Z,12.40
2023-05-21T01:17:57.367Z,12.50
2023-05-21T01:20:29.163Z,11.30
2023-05-21T01:23:00.124Z,11.90
2023-05-21T01:25:29.647Z,11.30
2023-05-21T01:27:59.398Z,13.80
2023-05-21T01:30:29.240Z,11.80
2023-05-21T01:33:03.597Z,12.40
2023-05-21T01:35:37.039Z,11.80
2023-05-21T01:38:18.548Z,13.00
2023-05-21T01:40:56.671Z,12.40
2023-05-21T01:43:26.409Z,12.50
2023-05-21T01:45:58.544Z,12.30
2023-05-21T01:48:29.544Z,11.40
2023-05-21T01:51:02.959Z,11.30
2023-05-21T01:53:35.265Z,11.40
2023-05-21T01:56:05.024Z,11.80
2023-05-21T01:58:33.387Z,11.40
2023-05-21T02:01:03.730Z,11.30
2023-05-21T02:03:33.963Z,11.40
2023-05-21T02:06:02.443Z,11.30
2023-05-21T02:08:32.564Z,13.40
2023-05-21T02:11:03.330Z,11.30
2023-05-21T02:16:05.419Z,12.30
2023-05-21T02:18:34.206Z,11.30
2023-05-21T02:23:32.324Z,11.40
2023-05-21T02:26:03.096Z,12.80
2023-05-21T02:28:32.763Z,12.80
2023-05-21T02:31:03.417Z,13.30
2023-05-21T02:33:32.232Z,12.60
2023-05-21T02:41:06.583Z,11.00
2023-05-21T02:43:37.503Z,11.10
2023-05-21T02:46:08.843Z,12.30
2023-05-21T02:51:10.319Z,13.30
2023-05-21T02:53:41.330Z,11.20
2023-05-21T02:56:12.522Z,11.90
2023-05-21T03:01:11.052Z,10.80
2023-05-21T03:03:40.041Z,10.80
2023-05-21T03:06:10.367Z,10.90
2023-05-21T03:11:12.800Z,11.50
2023-05-21T03:16:14.191Z,10.90
2023-05-21T03:18:45.393Z,12.40
2023-05-21T03:26:18.938Z,12.50
2023-05-21T03:28:49.009Z,13.20
2023-05-21T03:31:18.889Z,11.30
2023-05-21T03:33:52.672Z,13.10
2023-05-21T03:36:29.298Z,12.70
2023-05-21T03:38:58.405Z,12.60
2023-05-21T03:41:29.380Z,12.00
2023-05-21T03:44:06.113Z,11.00
2023-05-21T03:46:48.025Z,11.10
2023-05-21T03:49:27.540Z,13.30
2023-05-21T03:57:03.556Z,11.50
2023-05-21T04:02:01.381Z,12.20
2023-05-21T04:04:30.940Z,12.90
2023-05-21T04:06:59.658Z,13.50
2023-05-21T04:09:28.815Z,13.40
2023-05-21T04:11:57.318Z,12.70
2023-05-21T04:14:27.043Z,11.90
2023-05-21T04:19:31.604Z,11.90
2023-05-21T04:27:10.059Z,11.70
2023-05-21T04:29:42.592Z,12.60
2023-05-21T04:32:15.252Z,12.30
2023-05-21T04:34:45.058Z,12.50
2023-05-21T04:37:15.064Z,13.50
2023-05-21T04:39:43.838Z,12.40
2023-05-21T04:42:12.131Z,11.80
2023-05-21T04:44:44.745Z,12.80
2023-05-21T04:47:16.029Z,13.50
2023-05-21T04:49:48.017Z,12.80
2023-05-21T04:52:16.768Z,12.00
2023-05-21T04:59:45.660Z,12.50
2023-05-21T05:02:14.958Z,12.10
2023-05-21T05:04:44.554Z,12.60
2023-05-21T05:07:13.646Z,12.50
2023-05-21T05:17:15.681Z,13.30
2023-05-21T05:19:46.515Z,14.40
2023-05-21T05:22:14.917Z,12.50
2023-05-21T05:24:46.562Z,12.90
2023-05-21T05:29:46.714Z,12.60
2023-05-21T05:32:16.583Z,14.80
2023-05-21T05:34:47.583Z,14.20
2023-05-21T05:37:20.610Z,14.90
2023-05-21T05:39:51.485Z,13.90
2023-05-21T05:44:49.354Z,13.30
2023-05-21T05:47:23.067Z,15.10
2023-05-21T05:54:51.512Z,14.20
2023-05-21T05:57:22.413Z,13.90
2023-05-21T05:59:55.551Z,13.90
2023-05-21T06:02:27.079Z,14.10
2023-05-21T06:04:58.188Z,15.10
2023-05-21T06:07:26.735Z,13.20
2023-05-21T06:09:56.550Z,14.50
2023-05-21T06:12:24.920Z,13.40
2023-05-21T06:14:54.436Z,14.40
2023-05-21T06:17:24.431Z,14.20
2023-05-21T06:19:55.302Z,13.60
2023-05-21T06:22:25.455Z,13.60
2023-05-21T06:24:59.421Z,15.50
2023-05-21T06:27:30.710Z,15.20
2023-05-21T06:30:01.918Z,14.50
2023-05-21T06:32:34.962Z,14.30
2023-05-21T06:35:03.472Z,16.00
2023-05-21T06:40:04.991Z,15.20
2023-05-21T06:45:28.448Z,15.90
2023-05-21T06:48:04.847Z,15.20
2023-05-21T06:53:03.745Z,14.50
2023-05-21T06:55:33.691Z,14.90
2023-05-21T06:58:24.250Z,14.70
2023-05-21T07:00:54.178Z,14.50
2023-05-21T07:03:25.807Z,16.20
2023-05-21T07:05:56.793Z,17.00
2023-05-21T07:10:57.589Z,16.70
2023-05-21T07:13:28.093Z,15.10
2023-05-21T07:18:31.008Z,16.90
2023-05-21T07:23:31.817Z,17.00
2023-05-21T07:26:02.028Z,16.20
2023-05-21T07:31:01.520Z,17.80
2023-05-21T07:33:38.874Z,16.40
2023-05-21T07:36:07.959Z,17.00
2023-05-21T07:38:36.536Z,16.20
2023-05-21T07:41:06.523Z,17.00
2023-05-21T07:43:36.255Z,18.70
2023-05-21T07:46:07.381Z,16.60
2023-05-21T07:48:37.558Z,17.10
2023-05-21T07:51:08.913Z,18.90
2023-05-21T07:56:11.530Z,18.10
2023-05-21T07:58:42.784Z,18.50
2023-05-21T08:01:13.479Z,18.70
2023-05-21T08:03:45.622Z,18.60
2023-05-21T08:06:17.954Z,19.50
2023-05-21T08:08:46.524Z,15.70
2023-05-21T08:11:16.526Z,19.30
2023-05-21T08:13:45.564Z,19.30
2023-05-21T08:16:15.603Z,19.30
2023-05-21T08:18:45.717Z,19.30
2023-05-21T08:21:18.601Z,19.50
2023-05-21T08:23:48.265Z,19.70
2023-05-21T08:26:17.417Z,19.60
2023-05-21T08:28:47.518Z,19.60
2023-05-21T08:31:16.436Z,19.50
2023-05-21T08:33:52.717Z,19.30
2023-05-21T08:36:32.834Z,18.10
2023-05-21T08:39:16.876Z,19.30
2023-05-21T08:41:49.777Z,19.30
2023-05-21T08:44:25.542Z,19.40
2023-05-21T08:46:59.242Z,19.60
2023-05-21T08:49:33.306Z,18.80
2023-05-21T08:52:06.187Z,19.70
2023-05-21T08:54:35.213Z,19.70
2023-05-21T08:57:05.637Z,19.70
2023-05-21T08:59:37.102Z,19.50
2023-05-21T09:02:13.527Z,19.50
2023-05-21T09:04:43.367Z,19.60
2023-05-21T09:07:16.296Z,21.20
2023-05-21T09:10:10.095Z,20.10
2023-05-21T09:12:41.333Z,20.60
2023-05-21T09:15:10.890Z,21.10
2023-05-21T09:17:42.586Z,21.40
2023-05-21T09:20:32.639Z,21.70
2023-05-21T09:23:12.376Z,22.10
2023-05-21T09:25:42.241Z,21.10
2023-05-21T09:28:16.198Z,23.20
2023-05-21T09:30:48.704Z,22.20
2023-05-21T09:33:27.338Z,21.60
2023-05-21T09:35:58.027Z,23.50
2023-05-21T09:38:30.354Z,22.50
2023-05-21T09:41:00.059Z,22.90
2023-05-21T09:43:32.451Z,23.20
2023-05-21T09:46:04.161Z,23.50
2023-05-21T09:48:37.939Z,24.40
2023-05-21T09:51:16.248Z,24.10
2023-05-21T09:53:52.970Z,24.50
2023-05-21T09:56:24.634Z,24.80
2023-05-21T09:58:55.627Z,25.00
2023-05-21T10:01:26.275Z,24.30
2023-05-21T10:03:59.463Z,24.50
2023-05-21T10:06:31.323Z,25.10
2023-05-21T10:09:09.175Z,25.20
2023-05-21T10:11:41.398Z,24.70
2023-05-21T10:14:19.593Z,25.60
2023-05-21T10:16:50.383Z,24.40
2023-05-21T10:19:23.664Z,26.00
2023-05-21T10:21:57.201Z,26.30
2023-05-21T10:24:30.162Z,26.90
2023-05-21T10:27:01.074Z,26.30
2023-05-21T10:29:32.415Z,25.60
2023-05-21T10:32:06.393Z,26.40
2023-05-21T10:34:37.404Z,25.70
2023-05-21T10:37:10.769Z,25.60
2023-05-21T10:39:41.465Z,25.70
2023-05-21T10:42:24.326Z,24.90
2023-05-21T10:45:16.413Z,25.40
2023-05-21T10:48:10.257Z,25.10
2023-05-21T10:51:02.819Z,25.10
2023-05-21T10:53:50.716Z,23.70
2023-05-21T10:56:27.872Z,25.50
2023-05-21T10:59:23.055Z,25.60
2023-05-21T11:01:54.268Z,25.10
2023-05-21T11:04:26.299Z,24.70
2023-05-21T11:06:56.465Z,25.00
2023-05-21T11:09:27.320Z,24.80
2023-05-21T11:12:01.132Z,26.00
2023-05-21T11:14:39.962Z,25.60
2023-05-21T11:17:18.308Z,25.80
2023-05-21T11:19:48.951Z,25.90
2023-05-21T11:22:27.490Z,25.80
2023-05-21T11:25:03.512Z,25.00
2023-05-21T11:27:36.233Z,25.60
2023-05-21T11:30:10.219Z,26.50
2023-05-21T11:32:40.500Z,26.40
2023-05-21T11:35:10.239Z,26.50
2023-05-21T11:37:45.050Z,27.10
2023-05-21T11:40:27.124Z,25.90
2023-05-21T11:42:58.518Z,26.90
2023-05-21T11:45:34.038Z,27.00
2023-05-21T11:48:04.823Z,27.20
2023-05-21T11:50:35.587Z,27.50
2023-05-21T11:53:07.899Z,27.50
2023-05-21T11:55:41.474Z,27.70
2023-05-21T11:58:16.810Z,27.00
2023-05-21T12:00:46.666Z,27.10
2023-05-21T12:03:16.678Z,27.00
2023-05-21T12:05:49.354Z,27.20
2023-05-21T12:08:27.190Z,27.10
2023-05-21T12:10:59.799Z,27.10
2023-05-21T12:13:32.306Z,28.20
2023-05-21T12:16:02.669Z,27.00
2023-05-21T12:18:34.239Z,27.60
2023-05-21T12:21:02.963Z,27.50
2023-05-21T12:23:32.812Z,27.80
2023-05-21T12:26:03.282Z,28.40
2023-05-21T12:28:34.789Z,28.10
2023-05-21T12:31:04.706Z,27.20
2023-05-21T12:33:37.552Z,28.30
2023-05-21T12:36:07.252Z,28.20
2023-05-21T12:38:39.307Z,28.20
2023-05-21T12:41:10.118Z,26.80
2023-05-21T12:43:44.059Z,27.20
2023-05-21T12:46:14.881Z,26.60
2023-05-21T12:48:51.570Z,26.70
2023-05-21T12:51:20.949Z,26.30
2023-05-21T12:53:49.736Z,26.30
2023-05-21T12:56:19.351Z,26.40
2023-05-21T12:58:51.848Z,27.00
2023-05-21T13:01:23.466Z,26.70
2023-05-21T13:03:52.891Z,26.90
2023-05-21T13:06:21.434Z,28.00
2023-05-21T13:08:52.786Z,27.20
2023-05-21T13:11:21.468Z,28.00
2023-05-21T13:13:53.973Z,27.20
2023-05-21T13:16:23.777Z,28.30
2023-05-21T13:18:52.650Z,28.10
2023-05-21T13:21:20.958Z,28.00
2023-05-21T13:23:51.948Z,28.80
2023-05-21T13:26:21.386Z,28.30
2023-05-21T13:28:52.453Z,28.50
2023-05-21T13:31:22.441Z,28.60
2023-05-21T13:33:51.390Z,28.50
2023-05-21T13:36:19.804Z,28.20
2023-05-21T13:38:49.539Z,28.20
2023-05-21T13:41:19.243Z,28.10
2023-05-21T13:43:50.072Z,28.10
2023-05-21T13:46:20.018Z,28.00
2023-05-21T13:48:48.417Z,28.10
2023-05-21T13:51:36.996Z,28.30
2023-05-21T13:54:07.556Z,28.60
2023-05-21T13:56:37.577Z,29.00
2023-05-21T13:59:07.481Z,29.30
2023-05-21T14:01:38.733Z,29.30
2023-05-21T14:04:08.471Z,29.60
2023-05-21T14:06:38.450Z,29.90
2023-05-21T14:09:08.475Z,30.40
2023-05-21T14:11:38.725Z,30.80
2023-05-21T14:14:09.799Z,30.70
2023-05-21T14:16:40.228Z,30.70
2023-05-21T14:19:11.197Z,30.70
2023-05-21T14:21:40.879Z,30.70
2023-05-21T14:24:12.534Z,30.80
2023-05-21T14:26:42.688Z,30.70
2023-05-21T14:29:13.080Z,30.40
2023-05-21T14:31:43.214Z,30.10
2023-05-21T14:34:14.357Z,29.70
2023-05-21T14:36:45.362Z,29.50
2023-05-21T14:39:15.799Z,29.30
2023-05-21T14:41:45.680Z,29.30
2023-05-21T14:44:14.522Z,29.10
2023-05-21T14:46:44.552Z,28.60
2023-05-21T14:49:14.744Z,28.10
2023-05-21T14:51:43.780Z,27.80
2023-05-21T14:54:12.160Z,27.60
2023-05-21T14:56:42.429Z,27.50
2023-05-21T14:59:12.974Z,27.50
2023-05-21T15:01:44.595Z,27.50
2023-05-21T15:04:13.228Z,27.80
2023-05-21T15:06:44.550Z,27.30
2023-05-21T15:09:14.199Z,27.90
2023-05-21T15:11:46.099Z,27.10
2023-05-21T15:14:15.692Z,28.10
2023-05-21T15:16:46.750Z,28.30
2023-05-21T15:19:16.722Z,28.50
2023-05-21T15:21:45.968Z,28.50
2023-05-21T15:24:15.819Z,28.00
2023-05-21T15:26:44.286Z,28.70
2023-05-21T15:29:13.869Z,28.60
2023-05-21T15:31:43.167Z,28.40
2023-05-21T15:34:15.850Z,28.10
2023-05-21T15:36:44.344Z,27.90
2023-05-21T15:39:15.666Z,27.40
2023-05-21T15:41:45.635Z,27.70
2023-05-21T15:44:15.279Z,27.70
2023-05-21T15:46:45.079Z,27.40
2023-05-21T15:49:16.378Z,27.00
2023-05-21T15:51:46.960Z,26.80
2023-05-21T15:54:16.747Z,26.70
2023-05-21T15:56:48.186Z,26.60
2023-05-21T15:59:16.758Z,27.30
2023-05-21T16:01:45.448Z,26.50
2023-05-21T16:04:17.200Z,26.50
2023-05-21T16:06:48.809Z,25.60
2023-05-21T16:09:18.691Z,26.10
2023-05-21T16:11:48.924Z,26.40
2023-05-21T16:14:17.349Z,26.00
2023-05-21T16:16:45.741Z,27.30
2023-05-21T16:19:15.303Z,26.30
2023-05-21T16:21:43.957Z,26.00
2023-05-21T16:24:12.885Z,26.70
2023-05-21T16:26:43.717Z,26.90
2023-05-21T16:29:12.223Z,27.10
2023-05-21T16:31:42.223Z,27.00
2023-05-21T16:34:13.060Z,28.40
2023-05-21T16:36:43.168Z,27.80
2023-05-21T16:39:14.009Z,27.10
2023-05-21T16:41:45.017Z,27.90
2023-05-21T16:44:16.670Z,27.70
2023-05-21T16:46:45.106Z,27.20
2023-05-21T16:49:14.720Z,27.40
2023-05-21T16:51:44.789Z,27.40
2023-05-21T16:54:14.496Z,27.50
2023-05-21T16:56:43.252Z,27.70
2023-05-21T16:59:14.118Z,28.80
2023-05-21T17:01:45.956Z,27.70
2023-05-21T17:04:14.465Z,28.60
2023-05-21T17:06:45.807Z,27.70
2023-05-21T17:09:17.581Z,27.60
2023-05-21T17:11:49.262Z,27.50
2023-05-21T17:14:27.017Z,26.60
2023-05-21T17:17:03.852Z,27.20
2023-05-21T17:19:32.583Z,27.00
2023-05-21T17:22:03.226Z,26.30
2023-05-21T17:24:31.808Z,26.70
2023-05-21T17:27:00.948Z,26.10
2023-05-21T17:29:29.964Z,26.80
2023-05-21T17:32:00.895Z,25.80
2023-05-21T17:34:31.958Z,26.30
2023-05-21T17:37:02.110Z,25.70
2023-05-21T17:39:32.161Z,26.00
2023-05-21T17:42:02.190Z,26.70
2023-05-21T17:44:32.481Z,26.50
2023-05-21T17:47:02.383Z,27.00
2023-05-21T17:49:32.495Z,26.70
2023-05-21T17:52:04.563Z,25.20
2023-05-21T17:57:05.468Z,25.30
2023-05-21T17:59:35.181Z,26.10
2023-05-21T18:02:06.143Z,25.50
2023-05-21T18:07:11.229Z,25.00
2023-05-21T18:12:09.563Z,25.20
2023-05-21T18:14:38.296Z,24.50
2023-05-21T18:17:09.008Z,24.50
2023-05-21T18:19:37.822Z,24.70
2023-05-21T18:22:08.807Z,23.40
2023-05-21T18:24:39.829Z,23.80
2023-05-21T18:27:11.298Z,23.20
2023-05-21T18:29:40.249Z,22.80
2023-05-21T18:32:13.893Z,22.80
2023-05-21T18:34:43.731Z,22.70
2023-05-21T18:37:13.788Z,23.10
2023-05-21T18:39:46.793Z,22.30
2023-05-21T18:42:16.542Z,22.70
2023-05-21T18:44:46.911Z,22.70
2023-05-21T18:47:16.563Z,22.20
2023-05-21T18:49:46.574Z,22.40
2023-05-21T18:52:16.770Z,23.40
2023-05-21T18:54:49.056Z,21.80
2023-05-21T18:57:19.502Z,23.30
2023-05-21T18:59:50.374Z,22.50
2023-05-21T19:02:19.088Z,21.30
2023-05-21T19:07:18.768Z,23.50
2023-05-21T19:09:49.518Z,22.80
2023-05-21T19:12:21.478Z,21.90
2023-05-21T19:14:52.219Z,22.80
2023-05-21T19:17:21.101Z,21.40
2023-05-21T19:19:54.246Z,22.60
2023-05-21T19:22:26.795Z,21.30
2023-05-21T19:24:56.649Z,22.30
2023-05-21T19:27:26.379Z,21.10
2023-05-21T19:29:55.216Z,21.20
2023-05-21T19:32:26.228Z,21.70
2023-05-21T19:34:54.825Z,22.30
2023-05-21T19:37:24.805Z,21.10
2023-05-21T19:39:54.253Z,21.10
2023-05-21T19:42:24.793Z,21.00
2023-05-21T19:44:54.444Z,20.90
2023-05-21T19:47:24.133Z,21.00
2023-05-21T19:49:54.132Z,21.20
2023-05-21T19:52:23.742Z,21.20
2023-05-21T19:54:53.410Z,20.90
2023-05-21T19:59:54.192Z,22.30
2023-05-21T20:02:24.564Z,22.40
2023-05-21T20:07:25.631Z,21.90
2023-05-21T20:09:54.623Z,20.70
2023-05-21T20:12:25.077Z,20.90
2023-05-21T20:14:58.641Z,21.00
2023-05-21T20:17:30.644Z,20.90
2023-05-21T20:20:02.580Z,20.90
2023-05-21T20:22:32.096Z,20.10
2023-05-21T20:25:05.391Z,20.60
2023-05-21T20:27:38.650Z,21.00
2023-05-21T20:30:09.574Z,20.80
2023-05-21T20:32:39.369Z,21.30
2023-05-21T20:35:10.302Z,21.20
2023-05-21T20:40:11.223Z,20.10
2023-05-21T20:42:45.215Z,21.20
2023-05-21T20:45:16.128Z,19.90
2023-05-21T20:47:49.383Z,21.10
2023-05-21T20:50:21.858Z,20.40
2023-05-21T20:55:23.005Z,19.20
2023-05-21T20:57:55.100Z,21.30
2023-05-21T21:02:55.752Z,19.10
2023-05-21T21:05:27.679Z,19.40
2023-05-21T21:07:57.438Z,19.20
2023-05-21T21:12:58.809Z,19.70
2023-05-21T21:15:27.205Z,19.60
2023-05-21T21:17:57.382Z,19.00
2023-05-21T21:20:27.607Z,20.90
2023-05-21T21:22:57.475Z,19.10
2023-05-21T21:25:26.100Z,18.90
2023-05-21T21:30:24.996Z,19.60
2023-05-21T21:32:54.712Z,20.10
2023-05-21T21:35:25.806Z,20.50
2023-05-21T21:37:55.288Z,19.10
2023-05-21T21:40:24.804Z,18.80
2023-05-21T21:42:54.549Z,19.80
2023-05-21T21:45:25.690Z,19.20
2023-05-21T21:47:56.739Z,18.90
2023-05-21T21:50:25.900Z,19.00
2023-05-21T21:52:58.534Z,18.70
2023-05-21T21:55:29.618Z,19.20
2023-05-21T21:57:59.072Z,18.10
2023-05-21T22:00:30.044Z,18.10
2023-05-21T22:02:58.409Z,18.20
2023-05-21T22:08:00.585Z,17.90
2023-05-21T22:13:03.897Z,18.40
2023-05-21T22:15:35.066Z,19.70
2023-05-21T22:18:03.643Z,19.60
2023-05-21T22:20:34.716Z,19.40
2023-05-21T22:23:04.782Z,17.60
2023-05-21T22:28:06.591Z,17.60
2023-05-21T22:30:39.859Z,18.40
2023-05-21T22:33:09.952Z,17.60
2023-05-21T22:35:38.679Z,17.50
2023-05-21T22:38:08.121Z,18.50
2023-05-21T22:40:38.137Z,18.40
2023-05-21T22:43:08.040Z,17.60
2023-05-21T22:45:38.529Z,18.00
2023-05-21T22:48:08.796Z,18.20
2023-05-21T22:50:38.431Z,18.90
2023-05-21T22:53:07.593Z,17.70
2023-05-21T22:55:36.685Z,19.20
2023-05-21T22:58:05.088Z,17.50
2023-05-21T23:00:34.630Z,17.30
2023-05-21T23:03:06.008Z,17.60
2023-05-21T23:05:34.359Z,17.30
2023-05-21T23:08:05.222Z,17.20
2023-05-21T23:13:05.537Z,18.90
2023-05-21T23:18:05.145Z,18.30
2023-05-21T23:20:37.031Z,18.70
2023-05-21T23:25:37.827Z,18.00
2023-05-21T23:28:09.038Z,17.60
2023-05-21T23:30:40.540Z,17.60
2023-05-21T23:33:11.168Z,18.30
2023-05-21T23:35:43.810Z,17.40
2023-05-21T23:38:13.333Z,18.60
2023-05-21T23:40:45.618Z,19.80
2023-05-21T23:43:14.405Z,17.60
2023-05-21T23:45:49.438Z,17.70
2023-05-21T23:48:17.843Z,17.90
2023-05-21T23:50:49.112Z,18.10
2023-05-21T23:53:17.466Z,18.30
2023-05-21T23:55:46.336Z,17.60
2023-05-21T23:58:15.998Z,19.40
